createdAt,value
2022-10-06T05:26:28.771Z,16.53
2022-10-06T05:29:37.619Z,13.45
2022-10-06T05:32:50.844Z,12.98
2022-10-06T05:36:23.225Z,13.20
2022-10-06T05:39:28.388Z,11.10
2022-10-06T05:42:32.587Z,12.15
2022-10-06T05:45:36.202Z,12.10
2022-10-06T05:48:55.666Z,12.18
2022-10-06T05:55:47.554Z,13.93
2022-10-06T05:58:53.439Z,14.00
2022-10-06T06:02:04.880Z,14.57
2022-10-06T06:05:34.516Z,13.77
2022-10-06T06:08:42.451Z,15.32
2022-10-06T06:11:48.809Z,13.50
2022-10-06T06:15:13.717Z,13.68
2022-10-06T06:18:25.178Z,14.18
2022-10-06T06:22:53.615Z,13.23
2022-10-06T06:34:30.239Z,13.45
2022-10-06T06:37:34.197Z,14.05
2022-10-06T06:40:55.757Z,12.73
2022-10-06T06:44:17.819Z,15.50
2022-10-06T06:47:35.854Z,13.87
2022-10-06T06:50:43.897Z,13.68
2022-10-06T06:53:55.351Z,14.23
2022-10-06T06:57:09.901Z,13.70
2022-10-06T07:00:18.520Z,14.50
2022-10-06T07:07:43.430Z,13.32
2022-10-06T07:10:57.578Z,14.82
2022-10-06T07:14:06.763Z,13.35
2022-10-06T07:17:35.459Z,15.10
2022-10-06T07:20:58.419Z,13.13
2022-10-06T07:24:31.322Z,13.98
2022-10-06T07:28:02.668Z,14.23
2022-10-06T07:35:26.598Z,13.65
2022-10-06T07:38:58.033Z,12.60
2022-10-06T07:42:11.040Z,13.10
2022-10-06T07:45:51.443Z,13.35
2022-10-06T07:49:11.122Z,13.27
2022-10-06T07:52:50.476Z,13.00
2022-10-06T07:55:53.938Z,12.77
2022-10-06T07:59:07.994Z,12.02
2022-10-06T08:02:23.709Z,12.88
2022-10-06T08:05:27.907Z,14.07
2022-10-06T08:08:50.225Z,13.02
2022-10-06T08:12:37.451Z,12.73
2022-10-06T08:15:40.558Z,13.23
2022-10-06T08:19:25.545Z,13.98
2022-10-06T08:22:31.158Z,12.73
2022-10-06T08:25:42.654Z,13.02
2022-10-06T08:28:52.527Z,12.40
2022-10-06T08:32:01.121Z,12.80
2022-10-06T08:35:40.741Z,12.88
2022-10-06T08:38:50.603Z,12.85
2022-10-06T08:42:00.801Z,12.30
2022-10-06T08:45:24.332Z,11.83
2022-10-06T08:48:39.853Z,11.95
2022-10-06T08:52:03.058Z,12.13
2022-10-06T08:55:30.925Z,11.60
2022-10-06T08:58:40.720Z,12.30
2022-10-06T09:01:48.044Z,11.57
2022-10-06T09:04:56.518Z,11.50
2022-10-06T09:07:59.618Z,12.52
2022-10-06T09:11:03.788Z,15.07
2022-10-06T09:14:14.995Z,11.65
2022-10-06T09:17:28.368Z,12.33
2022-10-06T09:20:44.491Z,11.73
2022-10-06T09:24:05.388Z,14.20
2022-10-06T09:27:28.397Z,9.88
2022-10-06T09:30:31.475Z,10.27
2022-10-06T09:33:40.094Z,9.57
2022-10-06T09:37:09.366Z,9.27
2022-10-06T09:40:36.777Z,9.25
2022-10-06T09:43:41.366Z,9.50
2022-10-06T09:46:44.368Z,9.55
2022-10-06T09:50:14.358Z,10.23
2022-10-06T09:53:21.772Z,9.88
2022-10-06T09:56:28.535Z,9.77
2022-10-06T09:59:39.958Z,10.15
2022-10-06T10:02:45.229Z,10.10
2022-10-06T10:05:57.090Z,9.87
2022-10-06T10:09:28.379Z,10.13
2022-10-06T10:12:34.430Z,9.75
2022-10-06T10:15:54.506Z,10.75
2022-10-06T10:19:18.796Z,9.27
2022-10-06T10:22:37.976Z,9.47
2022-10-06T10:26:02.405Z,9.75
2022-10-06T10:29:20.650Z,9.98
2022-10-06T10:33:13.116Z,9.30
2022-10-06T10:36:24.135Z,9.50
2022-10-06T10:39:33.831Z,8.90
2022-10-06T10:43:00.526Z,10.23
2022-10-06T10:46:27.559Z,8.95
2022-10-06T10:49:33.579Z,9.38
2022-10-06T10:52:42.710Z,8.18
2022-10-06T10:55:49.219Z,8.10
2022-10-06T10:59:27.865Z,8.70
2022-10-06T11:02:31.072Z,8.45
2022-10-06T11:05:52.937Z,10.57
2022-10-06T11:09:05.487Z,8.60
2022-10-06T11:12:38.481Z,7.67
2022-10-06T11:16:09.011Z,7.93
2022-10-06T11:19:24.212Z,9.40
2022-10-06T11:23:16.184Z,8.68
2022-10-06T11:27:08.429Z,8.82
2022-10-06T11:30:21.443Z,9.60
2022-10-06T11:33:37.432Z,9.80
2022-10-06T11:37:25.247Z,9.32
2022-10-06T11:41:10.251Z,8.85
2022-10-06T11:44:24.626Z,10.35
2022-10-06T11:47:39.758Z,10.03
2022-10-06T11:50:44.787Z,8.98
2022-10-06T11:53:58.889Z,8.23
2022-10-06T11:57:31.553Z,8.10
2022-10-06T12:00:35.402Z,8.60
2022-10-06T12:03:50.525Z,7.57
2022-10-06T12:06:56.064Z,7.28
2022-10-06T12:10:33.651Z,8.40
2022-10-06T12:14:44.604Z,7.45
2022-10-06T12:17:33.451Z,7.18
2022-10-06T12:20:59.520Z,6.90
2022-10-06T12:24:31.271Z,6.78
2022-10-06T12:27:43.196Z,6.80
2022-10-06T12:31:18.960Z,6.28
2022-10-06T12:35:20.180Z,6.60
2022-10-06T12:38:37.792Z,6.43
2022-10-06T12:45:46.276Z,6.82
2022-10-06T12:48:53.425Z,7.28
2022-10-06T12:52:44.847Z,10.27
2022-10-06T12:56:12.016Z,8.60
2022-10-06T12:59:41.135Z,7.90
2022-10-06T13:03:18.043Z,10.02
2022-10-06T13:06:35.317Z,6.60
2022-10-06T13:10:01.496Z,6.07
2022-10-06T13:13:30.314Z,6.60
2022-10-06T13:17:14.463Z,6.35
2022-10-06T13:21:01.903Z,6.30
2022-10-06T13:24:50.763Z,6.40
2022-10-06T13:36:31.971Z,5.70
2022-10-06T13:39:43.527Z,5.60
2022-10-06T13:42:49.673Z,5.62
2022-10-06T13:46:09.032Z,6.43
2022-10-06T13:49:34.081Z,5.67
2022-10-06T13:52:55.496Z,8.65
2022-10-06T13:56:00.216Z,7.90
2022-10-06T13:59:32.605Z,7.50
2022-10-06T14:02:43.892Z,5.93
2022-10-06T14:05:47.873Z,5.67
2022-10-06T14:08:55.538Z,5.95
2022-10-06T14:12:08.501Z,5.55
2022-10-06T14:15:30.614Z,5.12
2022-10-06T14:18:43.208Z,5.85
2022-10-06T14:21:51.797Z,4.80
2022-10-06T14:24:56.454Z,4.47
2022-10-06T14:28:06.651Z,4.87
2022-10-06T14:31:20.781Z,5.55
2022-10-06T14:34:31.621Z,5.32
2022-10-06T14:37:43.383Z,6.27
2022-10-06T14:40:49.971Z,5.35
2022-10-06T14:44:05.763Z,5.50
2022-10-06T14:47:10.103Z,5.30
2022-10-06T14:50:22.722Z,5.55
2022-10-06T14:53:36.238Z,5.23
2022-10-06T14:56:40.811Z,6.18
2022-10-06T14:59:52.469Z,5.75
2022-10-06T15:02:56.899Z,6.47
2022-10-06T15:06:24.549Z,6.57
2022-10-06T15:09:31.065Z,6.80
2022-10-06T15:12:35.697Z,5.97
2022-10-06T15:15:39.682Z,6.55
2022-10-06T15:18:45.880Z,6.18
2022-10-06T15:21:51.789Z,7.12
2022-10-06T15:24:56.724Z,6.90
2022-10-06T15:28:22.833Z,6.28
2022-10-06T15:31:36.770Z,8.43
2022-10-06T15:34:58.640Z,7.70
2022-10-06T15:38:15.773Z,8.80
2022-10-06T15:41:22.717Z,11.37
2022-10-06T15:44:26.072Z,10.32
2022-10-06T15:47:37.585Z,9.30
2022-10-06T15:50:43.501Z,8.68
2022-10-06T15:54:09.381Z,7.97
2022-10-06T15:57:29.049Z,8.80
2022-10-06T16:00:48.625Z,7.55
2022-10-06T16:04:09.082Z,6.53
2022-10-06T16:07:21.635Z,6.30
2022-10-06T16:10:45.453Z,5.90
2022-10-06T16:13:55.240Z,5.50
2022-10-06T16:17:11.573Z,6.28
2022-10-06T16:20:22.623Z,6.57
2022-10-06T16:23:32.632Z,6.30
2022-10-06T16:26:43.840Z,7.18
2022-10-06T16:38:50.583Z,8.13
2022-10-06T16:41:56.481Z,8.15
2022-10-06T16:45:12.518Z,7.75
2022-10-06T16:48:49.456Z,7.73
2022-10-06T16:52:21.514Z,8.65
2022-10-06T16:56:11.228Z,9.15
2022-10-06T16:59:29.517Z,8.50
2022-10-06T17:02:34.150Z,8.82
2022-10-06T17:05:48.773Z,8.37
2022-10-06T17:08:56.823Z,8.60
2022-10-06T17:12:12.256Z,8.38
2022-10-06T17:15:20.590Z,7.78
2022-10-06T17:19:14.064Z,7.45
2022-10-06T17:23:01.448Z,7.27
2022-10-06T17:26:06.865Z,8.05
2022-10-06T17:29:18.948Z,7.12
2022-10-06T17:32:33.583Z,7.15
2022-10-06T17:35:42.992Z,7.40
2022-10-06T17:39:00.378Z,7.47
2022-10-06T17:42:44.956Z,8.15
2022-10-06T17:46:18.764Z,8.18
2022-10-06T17:49:38.286Z,9.20
2022-10-06T17:52:58.150Z,10.50
2022-10-06T17:56:24.394Z,11.17
2022-10-06T17:59:36.586Z,11.93
2022-10-06T18:06:38.640Z,17.67
2022-10-06T18:10:04.834Z,17.90
2022-10-06T18:13:27.189Z,18.00
2022-10-06T18:16:55.957Z,18.58
2022-10-06T18:20:11.617Z,17.08
2022-10-06T18:23:24.799Z,16.02
2022-10-06T18:27:16.990Z,16.15
2022-10-06T18:44:09.523Z,17.92
2022-10-06T18:48:03.853Z,20.55
2022-10-06T18:51:27.260Z,21.63
2022-10-06T19:03:40.763Z,36.08
2022-10-06T19:12:28.353Z,25.57
2022-10-06T19:16:17.312Z,25.42
2022-10-06T19:36:39.510Z,23.38
2022-10-06T19:39:50.319Z,24.17
2022-10-06T19:47:08.295Z,22.37
2022-10-06T19:50:26.813Z,20.83
2022-10-06T19:53:36.929Z,20.10
2022-10-06T19:56:42.700Z,19.48
2022-10-06T19:59:51.608Z,19.58
2022-10-06T20:03:00.132Z,20.02
2022-10-06T20:06:09.409Z,18.57
2022-10-06T20:09:16.855Z,18.95
2022-10-06T20:13:12.587Z,20.00
2022-10-06T20:16:24.543Z,19.33
2022-10-06T20:19:31.549Z,19.08
2022-10-06T20:22:48.220Z,18.20
